createdAt,value
2023-05-01T00:02:13.509Z,56.60
2023-05-01T00:04:41.762Z,56.50
2023-05-01T00:07:09.964Z,56.70
2023-05-01T00:09:38.114Z,56.60
2023-05-01T00:12:06.416Z,56.50
2023-05-01T00:14:34.722Z,56.60
2023-05-01T00:17:04.573Z,56.50
2023-05-01T00:19:32.862Z,56.60
2023-05-01T00:22:01.161Z,56.70
2023-05-01T00:24:29.558Z,56.50
2023-05-01T00:26:57.690Z,56.60
2023-05-01T00:29:25.802Z,56.50
2023-05-01T00:31:55.202Z,56.60
2023-05-01T00:34:25.149Z,56.60
2023-05-01T00:36:53.384Z,56.60
2023-05-01T00:39:21.588Z,56.60
2023-05-01T00:41:49.693Z,56.60
2023-05-01T00:44:17.926Z,56.70
2023-05-01T00:46:45.948Z,56.60
2023-05-01T00:49:14.344Z,56.70
2023-05-01T00:51:44.774Z,56.70
2023-05-01T00:54:12.873Z,56.60
2023-05-01T00:56:41.142Z,56.50
2023-05-01T00:59:09.401Z,56.50
2023-05-01T01:01:37.640Z,56.50
2023-05-01T01:04:06.436Z,56.50
2023-05-01T01:06:43.903Z,56.60
2023-05-01T01:09:24.435Z,56.60
2023-05-01T01:12:03.713Z,56.60
2023-05-01T01:14:36.844Z,56.60
2023-05-01T01:17:12.760Z,56.60
2023-05-01T01:20:11.439Z,56.50
2023-05-01T01:22:42.566Z,56.60
2023-05-01T01:25:34.035Z,56.60
2023-05-01T01:28:25.654Z,56.40
2023-05-01T01:31:12.190Z,56.20
2023-05-01T01:33:56.353Z,56.50
2023-05-01T01:36:35.508Z,56.50
2023-05-01T01:39:11.735Z,56.50
2023-05-01T01:41:42.279Z,56.40
2023-05-01T01:44:17.680Z,56.30
2023-05-01T01:46:46.566Z,56.20
2023-05-01T01:49:21.041Z,56.10
2023-05-01T01:51:51.149Z,56.10
2023-05-01T01:54:24.751Z,56.10
2023-05-01T01:56:53.842Z,56.20
2023-05-01T01:59:24.326Z,56.20
2023-05-01T02:01:54.544Z,56.30
2023-05-01T02:04:26.832Z,56.20
2023-05-01T02:06:57.787Z,56.20
2023-05-01T02:09:27.765Z,56.10
2023-05-01T02:11:56.658Z,56.20
2023-05-01T02:14:28.203Z,56.10
2023-05-01T02:16:58.786Z,55.90
2023-05-01T02:19:29.511Z,56.10
2023-05-01T02:21:59.678Z,56.00
2023-05-01T02:24:29.496Z,55.90
2023-05-01T02:27:06.428Z,56.10
2023-05-01T02:29:34.984Z,56.00
2023-05-01T02:32:03.702Z,56.00
2023-05-01T02:34:35.777Z,55.80
2023-05-01T02:37:05.291Z,56.10
2023-05-01T02:39:33.677Z,55.90
2023-05-01T02:42:04.571Z,55.90
2023-05-01T02:44:39.539Z,55.90
2023-05-01T02:47:10.031Z,56.00
2023-05-01T02:49:40.912Z,55.90
2023-05-01T02:52:09.893Z,55.90
2023-05-01T02:54:38.989Z,55.80
2023-05-01T02:57:07.206Z,55.80
2023-05-01T02:59:35.587Z,55.80
2023-05-01T03:02:04.011Z,55.90
2023-05-01T03:04:32.333Z,55.90
2023-05-01T03:07:01.850Z,55.80
2023-05-01T03:09:29.970Z,55.90
2023-05-01T03:11:58.266Z,56.00
2023-05-01T03:14:28.441Z,56.10
2023-05-01T03:16:56.659Z,56.20
2023-05-01T03:19:24.868Z,56.20
2023-05-01T03:21:53.003Z,56.30
2023-05-01T03:24:22.583Z,56.40
2023-05-01T03:26:50.613Z,56.50
2023-05-01T03:29:18.845Z,56.50
2023-05-01T03:31:47.041Z,56.60
2023-05-01T03:34:15.330Z,56.70
2023-05-01T03:36:43.509Z,56.70
2023-05-01T03:39:12.105Z,56.80
2023-05-01T03:42:00.285Z,56.90
2023-05-01T03:44:31.321Z,56.90
2023-05-01T03:46:59.518Z,57.00
2023-05-01T03:49:30.129Z,57.20
2023-05-01T03:51:58.484Z,57.20
2023-05-01T03:54:26.744Z,57.30
2023-05-01T03:57:17.267Z,57.30
2023-05-01T03:59:45.326Z,57.40
2023-05-01T04:02:14.605Z,57.40
2023-05-01T04:04:43.398Z,57.40
2023-05-01T04:07:11.755Z,57.50
2023-05-01T04:09:39.697Z,57.50
2023-05-01T04:12:07.883Z,57.50
2023-05-01T04:14:37.404Z,57.50
2023-05-01T04:17:05.519Z,57.60
2023-05-01T04:19:37.934Z,57.60
2023-05-01T04:22:06.334Z,57.70
2023-05-01T04:24:36.640Z,57.70
2023-05-01T04:27:05.848Z,57.60
2023-05-01T04:29:33.987Z,57.70
2023-05-01T04:32:03.689Z,57.70
2023-05-01T04:34:32.263Z,57.80
2023-05-01T04:37:01.883Z,57.90
2023-05-01T04:39:31.134Z,57.80
2023-05-01T04:41:59.577Z,57.80
2023-05-01T04:44:28.269Z,57.80
2023-05-01T04:46:56.395Z,57.80
2023-05-01T04:49:26.191Z,58.00
2023-05-01T04:51:54.185Z,58.50
2023-05-01T04:54:24.956Z,58.10
2023-05-01T04:56:53.211Z,58.10
2023-05-01T04:59:21.692Z,58.10
2023-05-01T05:12:05.059Z,58.40
2023-05-01T05:15:19.167Z,58.20
2023-05-01T05:17:54.517Z,58.40
2023-05-01T05:20:26.001Z,58.60
2023-05-01T05:22:53.993Z,58.50
2023-05-01T05:25:25.090Z,58.30
2023-05-01T05:27:54.194Z,58.50
2023-05-01T05:30:22.580Z,58.10
2023-05-01T05:32:51.084Z,58.50
2023-05-01T05:35:19.651Z,58.30
2023-05-01T05:37:49.334Z,58.50
2023-05-01T05:40:17.714Z,58.50
2023-05-01T05:42:56.595Z,58.40
2023-05-01T05:45:26.332Z,57.50
2023-05-01T05:47:54.574Z,58.20
2023-05-01T05:50:23.113Z,58.10
2023-05-01T05:52:52.544Z,58.10
2023-05-01T05:55:20.962Z,58.20
2023-05-01T05:58:03.896Z,58.70
2023-05-01T06:00:32.493Z,58.30
2023-05-01T06:03:05.307Z,57.70
2023-05-01T06:05:35.082Z,56.80
2023-05-01T06:08:04.956Z,57.30
2023-05-01T06:10:33.173Z,57.40
2023-05-01T06:13:13.210Z,58.00
2023-05-01T06:15:46.827Z,58.60
2023-05-01T06:18:15.304Z,58.60
2023-05-01T06:20:43.698Z,58.30
2023-05-01T06:23:13.907Z,58.60
2023-05-01T06:26:00.851Z,59.00
2023-05-01T06:28:28.971Z,58.50
2023-05-01T06:30:57.217Z,58.80
2023-05-01T06:33:27.199Z,58.40
2023-05-01T06:36:06.029Z,58.20
2023-05-01T06:38:35.629Z,58.50
2023-05-01T06:41:05.378Z,58.40
2023-05-01T06:43:33.685Z,59.10
2023-05-01T06:46:05.895Z,58.50
2023-05-01T06:49:19.383Z,58.60
2023-05-01T06:52:38.978Z,58.70
2023-05-01T06:55:10.861Z,58.50
2023-05-01T06:57:40.074Z,58.30
2023-05-01T07:00:10.725Z,57.70
2023-05-01T07:02:40.767Z,57.00
2023-05-01T07:05:09.248Z,56.30
2023-05-01T07:07:38.906Z,56.10
2023-05-01T07:10:54.055Z,55.90
2023-05-01T07:13:23.446Z,55.20
2023-05-01T07:15:53.101Z,55.10
2023-05-01T07:18:22.395Z,55.40
2023-05-01T07:20:50.445Z,55.00
2023-05-01T07:23:18.284Z,53.90
2023-05-01T07:25:46.339Z,54.80
2023-05-01T07:28:14.122Z,55.00
2023-05-01T07:30:43.225Z,55.10
2023-05-01T07:33:11.567Z,55.20
2023-05-01T07:35:39.510Z,55.00
2023-05-01T07:38:07.795Z,54.60
2023-05-01T07:40:36.541Z,53.90
2023-05-01T07:43:04.819Z,52.50
2023-05-01T07:45:32.664Z,52.40
2023-05-01T07:48:01.925Z,51.80
2023-05-01T07:50:29.746Z,50.60
2023-05-01T07:52:57.646Z,50.80
2023-05-01T07:55:26.004Z,50.40
2023-05-01T07:57:53.781Z,51.30
2023-05-01T08:00:21.645Z,51.80
2023-05-01T08:02:49.495Z,52.00
2023-05-01T08:05:18.661Z,51.70
2023-05-01T08:07:46.450Z,51.00
2023-05-01T08:10:14.928Z,51.50
2023-05-01T08:12:42.686Z,51.80
2023-05-01T08:15:10.853Z,52.00
2023-05-01T08:17:38.788Z,51.90
2023-05-01T08:20:07.894Z,51.80
2023-05-01T08:22:37.001Z,51.90
2023-05-01T08:25:05.771Z,51.60
2023-05-01T08:27:33.907Z,50.40
2023-05-01T08:30:01.679Z,49.70
2023-05-01T08:32:29.533Z,48.90
2023-05-01T08:34:57.353Z,48.60
2023-05-01T08:37:25.254Z,49.20
2023-05-01T08:39:54.535Z,48.40
2023-05-01T08:42:22.638Z,48.70
2023-05-01T08:44:52.328Z,48.30
2023-05-01T08:47:20.192Z,49.00
2023-05-01T08:49:51.791Z,49.00
2023-05-01T08:52:21.389Z,49.60
2023-05-01T08:54:51.414Z,50.10
2023-05-01T08:57:21.828Z,50.30
2023-05-01T08:59:51.436Z,51.10
2023-05-01T09:02:19.476Z,51.20
2023-05-01T09:04:48.671Z,51.30
2023-05-01T09:07:17.154Z,51.30
2023-05-01T09:09:45.186Z,51.40
2023-05-01T09:12:18.865Z,51.30
2023-05-01T09:14:48.158Z,51.20
2023-05-01T09:17:16.887Z,50.90
2023-05-01T09:19:45.178Z,49.90
2023-05-01T09:22:13.052Z,49.30
2023-05-01T09:24:40.865Z,49.70
2023-05-01T09:27:09.222Z,49.70
2023-05-01T09:29:41.748Z,49.70
2023-05-01T09:32:20.439Z,49.90
2023-05-01T09:34:49.128Z,50.10
2023-05-01T09:37:28.202Z,50.30
2023-05-01T09:40:07.764Z,50.60
2023-05-01T09:42:37.189Z,50.80
2023-05-01T09:45:07.296Z,50.50
2023-05-01T09:47:36.528Z,49.50
2023-05-01T09:50:04.438Z,50.30
2023-05-01T09:52:33.623Z,49.20
2023-05-01T09:55:14.930Z,49.80
2023-05-01T09:57:43.861Z,50.40
2023-05-01T10:00:13.901Z,50.10
2023-05-01T10:02:44.846Z,49.90
2023-05-01T10:05:13.790Z,49.80
2023-05-01T10:07:55.855Z,49.60
2023-05-01T10:10:23.878Z,50.20
2023-05-01T10:12:51.884Z,49.70
2023-05-01T10:15:26.310Z,50.30
2023-05-01T10:17:56.740Z,50.50
2023-05-01T10:20:24.602Z,50.50
2023-05-01T10:22:52.398Z,50.90
2023-05-01T10:25:22.469Z,50.90
2023-05-01T10:27:52.878Z,51.30
2023-05-01T10:30:22.154Z,51.70
2023-05-01T10:32:50.503Z,52.00
2023-05-01T10:35:22.948Z,52.20
2023-05-01T10:37:59.491Z,52.10
2023-05-01T10:40:47.196Z,52.30
2023-05-01T10:43:16.790Z,51.90
2023-05-01T10:45:45.187Z,51.40
2023-05-01T10:48:13.061Z,52.00
2023-05-01T10:51:11.176Z,52.30
2023-05-01T10:53:39.810Z,51.50
2023-05-01T10:56:43.965Z,51.70
2023-05-01T10:59:12.823Z,51.80
2023-05-01T11:01:41.493Z,51.60
2023-05-01T11:11:54.238Z,52.20
2023-05-01T11:14:22.018Z,52.60
2023-05-01T11:16:50.502Z,52.60
2023-05-01T11:19:50.216Z,51.90
2023-05-01T11:22:18.530Z,51.60
2023-05-01T11:24:47.894Z,52.60
2023-05-01T11:27:17.989Z,53.00
2023-05-01T11:29:49.455Z,52.90
2023-05-01T11:32:20.662Z,52.50
2023-05-01T11:34:51.038Z,52.90
2023-05-01T11:37:18.928Z,52.60
2023-05-01T11:39:53.573Z,53.00
2023-05-01T11:42:23.630Z,53.00
2023-05-01T11:45:08.383Z,51.80
2023-05-01T11:47:36.651Z,52.40
2023-05-01T11:50:04.802Z,53.40
2023-05-01T11:52:43.290Z,53.00
2023-05-01T11:55:11.548Z,52.60
2023-05-01T11:57:51.948Z,53.30
2023-05-01T12:00:29.446Z,53.30
2023-05-01T12:03:01.993Z,53.20
2023-05-01T12:05:32.151Z,53.30
2023-05-01T12:08:52.673Z,53.10
2023-05-01T12:11:35.791Z,53.40
2023-05-01T12:14:05.467Z,53.10
2023-05-01T12:16:33.482Z,53.00
2023-05-01T12:19:01.497Z,52.70
2023-05-01T12:21:29.429Z,51.40
2023-05-01T12:23:58.160Z,51.30
2023-05-01T12:26:26.441Z,50.90
2023-05-01T12:28:55.933Z,52.10
2023-05-01T12:31:26.096Z,52.30
2023-05-01T12:33:54.903Z,50.60
2023-05-01T12:36:25.649Z,52.40
2023-05-01T12:38:59.071Z,52.70
2023-05-01T12:41:38.254Z,52.80
2023-05-01T12:44:24.306Z,53.00
2023-05-01T12:46:57.588Z,53.00
2023-05-01T12:49:25.720Z,52.70
2023-05-01T12:51:55.224Z,52.90
2023-05-01T12:54:23.524Z,52.70
2023-05-01T12:56:53.091Z,52.70
2023-05-01T12:59:22.855Z,52.90
2023-05-01T13:02:00.296Z,52.80
2023-05-01T13:04:29.091Z,51.80
2023-05-01T13:06:57.823Z,51.70
2023-05-01T13:09:27.143Z,51.70
2023-05-01T13:11:59.872Z,49.80
2023-05-01T13:14:27.933Z,51.90
2023-05-01T13:16:56.615Z,52.40
2023-05-01T13:19:29.451Z,52.70
2023-05-01T13:21:58.421Z,51.80
2023-05-01T13:24:36.504Z,52.40
2023-05-01T13:27:06.232Z,51.80
2023-05-01T13:29:34.502Z,52.50
2023-05-01T13:32:04.779Z,52.70
2023-05-01T13:34:34.876Z,52.40
2023-05-01T13:37:03.086Z,51.80
2023-05-01T13:39:30.963Z,51.70
2023-05-01T13:41:58.791Z,50.70
2023-05-01T13:44:28.168Z,52.20
2023-05-01T13:46:56.182Z,53.00
2023-05-01T13:49:24.478Z,53.20
2023-05-01T13:51:55.349Z,53.00
2023-05-01T13:54:23.151Z,52.90
2023-05-01T13:56:51.031Z,52.50
2023-05-01T13:59:18.849Z,52.20
2023-05-01T14:01:47.753Z,52.90
2023-05-01T14:04:17.905Z,52.50
2023-05-01T14:06:48.383Z,53.30
2023-05-01T14:09:19.405Z,52.50
2023-05-01T14:22:46.041Z,53.10
2023-05-01T14:25:24.216Z,52.90
2023-05-01T14:27:52.765Z,52.20
2023-05-01T14:30:28.055Z,52.70
2023-05-01T14:32:56.626Z,52.30
2023-05-01T14:35:25.469Z,53.10
2023-05-01T14:37:53.597Z,52.30
2023-05-01T14:40:27.765Z,52.40
2023-05-01T14:42:55.928Z,51.70
2023-05-01T14:45:23.679Z,52.10
2023-05-01T14:47:51.597Z,52.60
2023-05-01T14:50:21.949Z,52.00
2023-05-01T14:52:54.660Z,53.30
2023-05-01T14:55:27.573Z,52.10
2023-05-01T14:57:55.477Z,52.60
2023-05-01T15:00:23.910Z,52.60
2023-05-01T15:02:52.322Z,52.00
2023-05-01T15:05:20.396Z,51.70
2023-05-01T15:07:48.584Z,52.60
2023-05-01T15:10:16.837Z,52.00
2023-05-01T15:12:46.463Z,51.80
2023-05-01T15:15:14.244Z,52.00
2023-05-01T15:17:42.040Z,52.50
2023-05-01T15:20:11.225Z,52.90
2023-05-01T15:22:40.313Z,53.50
2023-05-01T15:25:09.916Z,54.10
2023-05-01T15:27:37.830Z,54.80
2023-05-01T15:30:10.062Z,55.70
2023-05-01T15:32:38.817Z,56.50
2023-05-01T15:35:07.040Z,56.30
2023-05-01T15:37:34.844Z,55.30
2023-05-01T15:40:02.875Z,56.00
2023-05-01T15:42:30.723Z,56.00
2023-05-01T15:44:59.481Z,55.80
2023-05-01T15:47:28.935Z,55.50
2023-05-01T15:49:56.916Z,55.30
2023-05-01T15:52:25.554Z,54.50
2023-05-01T15:54:54.820Z,52.80
2023-05-01T15:57:22.599Z,52.80
2023-05-01T15:59:53.618Z,52.50
2023-05-01T16:02:21.500Z,51.10
2023-05-01T16:04:51.763Z,51.10
2023-05-01T16:07:21.146Z,52.00
2023-05-01T16:09:49.104Z,53.40
2023-05-01T16:12:17.021Z,51.60
2023-05-01T16:14:45.057Z,54.10
2023-05-01T16:17:13.140Z,52.80
2023-05-01T16:19:41.070Z,54.40
2023-05-01T16:22:11.483Z,53.00
2023-05-01T16:24:39.801Z,53.10
2023-05-01T16:27:07.851Z,53.50
2023-05-01T16:29:35.867Z,54.20
2023-05-01T16:32:05.708Z,54.10
2023-05-01T16:34:34.046Z,54.30
2023-05-01T16:37:01.799Z,54.50
2023-05-01T16:39:30.990Z,53.80
2023-05-01T16:41:58.855Z,54.60
2023-05-01T16:44:26.630Z,55.40
2023-05-01T16:46:56.043Z,56.20
2023-05-01T16:49:24.863Z,56.90
2023-05-01T16:51:56.622Z,57.70
2023-05-01T16:54:24.989Z,58.20
2023-05-01T16:56:54.235Z,58.90
2023-05-01T16:59:23.059Z,59.40
2023-05-01T17:01:52.251Z,59.60
2023-05-01T17:04:20.323Z,60.00
2023-05-01T17:06:48.140Z,60.90
2023-05-01T17:09:15.947Z,61.70
2023-05-01T17:11:57.404Z,63.10
2023-05-01T17:14:27.829Z,64.60
2023-05-01T17:16:55.759Z,65.50
2023-05-01T17:19:23.667Z,65.40
2023-05-01T17:21:51.455Z,66.10
2023-05-01T17:24:19.552Z,68.20
2023-05-01T17:26:47.567Z,68.30
2023-05-01T17:29:16.657Z,70.50
2023-05-01T17:31:44.645Z,70.00
2023-05-01T17:34:12.474Z,69.40
2023-05-01T17:36:40.435Z,69.60
2023-05-01T17:39:08.208Z,70.00
2023-05-01T17:41:35.993Z,69.70
2023-05-01T17:44:03.869Z,69.70
2023-05-01T17:46:33.314Z,69.40
2023-05-01T17:49:01.162Z,69.70
2023-05-01T17:51:29.203Z,69.80
2023-05-01T17:53:57.273Z,69.70
2023-05-01T17:56:25.804Z,69.60
2023-05-01T17:58:54.218Z,71.30
2023-05-01T18:01:22.143Z,71.00
2023-05-01T18:03:51.613Z,70.90
2023-05-01T18:06:19.943Z,71.00
2023-05-01T18:08:49.070Z,71.60
2023-05-01T18:11:17.393Z,71.00
2023-05-01T18:13:47.950Z,70.50
2023-05-01T18:16:16.384Z,70.50
2023-05-01T18:18:44.309Z,70.80
2023-05-01T18:21:14.489Z,70.80
2023-05-01T18:23:42.294Z,70.90
2023-05-01T18:26:10.046Z,70.50
2023-05-01T18:33:11.986Z,70.80
2023-05-01T18:35:42.275Z,71.30
2023-05-01T18:38:12.106Z,71.50
2023-05-01T18:40:40.200Z,71.50
2023-05-01T18:43:07.998Z,71.20
2023-05-01T18:45:35.817Z,72.30
2023-05-01T18:48:04.051Z,72.40
2023-05-01T18:50:32.001Z,72.00
2023-05-01T18:52:59.765Z,72.20
2023-05-01T18:55:28.943Z,72.70
2023-05-01T18:57:59.584Z,73.10
2023-05-01T19:00:27.374Z,73.20
2023-05-01T19:02:55.251Z,73.00
2023-05-01T19:05:24.992Z,73.30
2023-05-01T19:07:55.088Z,73.20
2023-05-01T19:10:22.880Z,72.90
2023-05-01T19:12:52.136Z,72.70
2023-05-01T19:15:20.262Z,73.20
2023-05-01T19:17:48.096Z,73.30
2023-05-01T19:20:16.026Z,72.00
2023-05-01T19:22:43.785Z,70.90
2023-05-01T19:25:11.560Z,70.40
2023-05-01T19:27:39.368Z,70.40
2023-05-01T19:30:10.837Z,70.30
2023-05-01T19:32:38.841Z,70.50
2023-05-01T19:35:07.333Z,69.70
2023-05-01T19:37:35.121Z,69.80
2023-05-01T19:40:02.909Z,69.30
2023-05-01T19:42:31.501Z,69.00
2023-05-01T19:44:59.291Z,68.90
2023-05-01T19:47:28.524Z,68.80
2023-05-01T19:49:56.455Z,68.30
2023-05-01T19:52:24.454Z,68.10
2023-05-01T19:54:52.203Z,68.30
2023-05-01T19:57:19.977Z,68.20
2023-05-01T19:59:48.380Z,68.00
2023-05-01T20:02:17.686Z,67.90
2023-05-01T20:04:47.439Z,68.50
2023-05-01T20:07:16.332Z,67.80
2023-05-01T20:09:45.845Z,67.80
2023-05-01T20:12:13.681Z,67.40
2023-05-01T20:14:41.437Z,67.30
2023-05-01T20:17:09.350Z,67.30
2023-05-01T20:19:39.410Z,67.50
2023-05-01T20:22:09.906Z,67.50
2023-05-01T20:24:37.835Z,67.50
2023-05-01T20:27:05.874Z,67.40
2023-05-01T20:29:33.798Z,67.50
2023-05-01T20:32:01.658Z,67.60
2023-05-01T20:34:29.460Z,67.60
2023-05-01T20:36:57.249Z,67.40
2023-05-01T20:39:26.477Z,67.50
2023-05-01T20:41:54.260Z,67.20
2023-05-01T20:44:22.146Z,66.90
2023-05-01T20:46:50.120Z,67.00
2023-05-01T20:49:20.273Z,66.60
2023-05-01T20:51:48.111Z,66.70
2023-05-01T20:54:15.859Z,66.70
2023-05-01T20:56:45.029Z,66.80
2023-05-01T20:59:13.511Z,66.60
2023-05-01T21:01:41.299Z,66.60
2023-05-01T21:04:09.264Z,66.90
2023-05-01T21:06:37.263Z,66.70
2023-05-01T21:09:08.315Z,66.90
2023-05-01T21:11:39.766Z,66.70
2023-05-01T21:14:09.219Z,67.00
2023-05-01T21:16:37.241Z,67.10
2023-05-01T21:19:05.252Z,66.90
2023-05-01T21:21:36.461Z,67.10
2023-05-01T21:24:04.834Z,67.50
2023-05-01T21:26:32.614Z,67.30
2023-05-01T21:29:00.526Z,67.60
2023-05-01T21:31:33.123Z,67.80
2023-05-01T21:34:03.235Z,67.50
2023-05-01T21:36:31.217Z,67.60
2023-05-01T21:39:00.922Z,67.70
2023-05-01T21:41:28.730Z,67.80
2023-05-01T21:43:56.620Z,68.00
2023-05-01T21:46:24.454Z,67.90
2023-05-01T21:48:53.800Z,68.10
2023-05-01T21:51:28.299Z,67.90
2023-05-01T21:53:56.257Z,68.00
2023-05-01T21:56:24.086Z,68.00
2023-05-01T21:58:52.065Z,67.80
2023-05-01T22:01:22.622Z,67.80
2023-05-01T22:03:51.451Z,68.00
2023-05-01T22:06:23.969Z,68.00
2023-05-01T22:08:52.458Z,68.00
2023-05-01T22:11:24.087Z,67.90
2023-05-01T22:13:51.861Z,68.70
2023-05-01T22:16:19.710Z,68.00
2023-05-01T22:18:49.776Z,68.00
2023-05-01T22:21:17.905Z,68.10
2023-05-01T22:23:47.036Z,67.90
2023-05-01T22:26:14.799Z,68.00
2023-05-01T22:28:42.560Z,68.00
2023-05-01T22:31:10.311Z,68.80
2023-05-01T22:33:38.097Z,67.90
2023-05-01T22:36:07.697Z,67.80
2023-05-01T22:38:35.887Z,67.80
2023-05-01T22:41:05.015Z,67.90
2023-05-01T22:43:32.847Z,67.90
2023-05-01T22:46:00.733Z,67.90
2023-05-01T22:48:28.553Z,67.90
2023-05-01T22:50:56.313Z,68.00
2023-05-01T22:53:24.217Z,68.00
2023-05-01T22:55:51.993Z,68.00
2023-05-01T22:58:21.151Z,68.10
2023-05-01T23:00:48.900Z,68.00
2023-05-01T23:03:16.765Z,68.30
2023-05-01T23:05:44.654Z,68.00
2023-05-01T23:08:12.448Z,68.00
2023-05-01T23:10:42.411Z,68.10
2023-05-01T23:13:16.793Z,68.00
2023-05-01T23:15:49.502Z,68.00
2023-05-01T23:18:22.830Z,68.10
2023-05-01T23:20:51.839Z,68.10
2023-05-01T23:23:21.419Z,68.20
2023-05-01T23:25:50.435Z,68.30
2023-05-01T23:28:21.920Z,68.20
2023-05-01T23:30:56.320Z,68.20
2023-05-01T23:33:25.888Z,68.10
2023-05-01T23:35:53.682Z,68.10
2023-05-01T23:38:21.542Z,68.20
2023-05-01T23:40:49.592Z,68.30
2023-05-01T23:43:17.649Z,68.10
2023-05-01T23:45:45.711Z,68.20
2023-05-01T23:48:15.582Z,68.20
2023-05-01T23:50:43.477Z,68.10
2023-05-01T23:53:11.863Z,68.20
2023-05-01T23:55:39.641Z,68.10
2023-05-01T23:58:07.413Z,68.30
